Time;durP1;ratioP1;P1;durP2;ratioP2;P2;SDS_P1;SDS_P2;PMS_P1;PMS_P2;Temp;Humidity;BMP_temperature;BMP_pressure;BME280_temperature;BME280_humidity;BME280_pressure;Samples;Min_cycle;Max_cycle;Signal;HPM_P1;HPM_P2
2023/06/08 00:02:23;;;;;;;15.30;5.38;;;;;;;;;;4987874;28;20038;-64
2023/06/08 00:04:50;;;;;;;15.73;5.60;;;;;;;;;;4985185;28;20034;-64
2023/06/08 00:07:17;;;;;;;13.60;5.25;;;;;;;;;;4985247;28;20037;-64
2023/06/08 00:09:43;;;;;;;16.38;5.72;;;;;;;;;;4984147;28;20046;-64
2023/06/08 00:12:10;;;;;;;17.02;6.32;;;;;;;;;;4987010;28;20033;-63
2023/06/08 00:14:36;;;;;;;14.95;6.03;;;;;;;;;;4988752;28;20034;-63
2023/06/08 00:17:03;;;;;;;11.48;5.75;;;;;;;;;;4990869;28;20038;-63
2023/06/08 00:19:33;;;;;;;14.40;6.53;;;;;;;;;;4990258;28;20034;-63
2023/06/08 00:22:04;;;;;;;13.38;6.80;;;;;;;;;;4990635;28;20026;-63
2023/06/08 00:24:30;;;;;;;13.95;6.93;;;;;;;;;;4990254;28;20897;-64
2023/06/08 00:26:56;;;;;;;14.68;7.30;;;;;;;;;;4991376;28;20061;-63
2023/06/08 00:29:23;;;;;;;16.95;7.65;;;;;;;;;;4991135;28;20119;-63
2023/06/08 00:31:49;;;;;;;16.50;7.53;;;;;;;;;;4991490;28;20041;-63
2023/06/08 00:34:15;;;;;;;15.13;7.78;;;;;;;;;;4990611;28;20056;-63
2023/06/08 00:36:42;;;;;;;14.48;8.07;;;;;;;;;;4991261;28;20591;-63
2023/06/08 00:39:08;;;;;;;13.65;7.50;;;;;;;;;;4988358;28;20026;-63
2023/06/08 00:41:34;;;;;;;12.93;6.55;;;;;;;;;;4991882;28;20113;-63
2023/06/08 00:44:00;;;;;;;12.20;6.50;;;;;;;;;;4991569;28;20041;-63
2023/06/08 00:46:30;;;;;;;15.10;6.80;;;;;;;;;;4990712;28;20021;-64
2023/06/08 00:48:57;;;;;;;15.65;7.75;;;;;;;;;;4991388;28;20041;-63
2023/06/08 00:51:23;;;;;;;12.57;7.05;;;;;;;;;;4991099;28;20033;-64
2023/06/08 00:53:50;;;;;;;15.80;6.80;;;;;;;;;;4990628;28;20412;-63
2023/06/08 00:56:16;;;;;;;18.10;8.38;;;;;;;;;;4989351;28;20034;-63
2023/06/08 00:58:48;;;;;;;16.45;8.55;;;;;;;;;;4990288;28;20033;-63
2023/06/08 01:01:18;;;;;;;18.25;8.73;;;;;;;;;;4990782;28;20037;-63
2023/06/08 01:03:47;;;;;;;17.77;9.15;;;;;;;;;;4990935;28;20733;-63
2023/06/08 01:06:16;;;;;;;18.50;9.75;;;;;;;;;;4987888;28;20944;-64
2023/06/08 01:08:52;;;;;;;15.82;8.13;;;;;;;;;;4987921;28;20495;-63
2023/06/08 01:11:33;;;;;;;16.20;8.18;;;;;;;;;;4990211;28;20029;-63
2023/06/08 01:14:15;;;;;;;15.27;7.05;;;;;;;;;;4990315;28;20037;-64
2023/06/08 01:16:44;;;;;;;15.45;8.15;;;;;;;;;;4991372;28;20852;-63
2023/06/08 01:19:17;;;;;;;16.60;6.78;;;;;;;;;;4990769;28;21310;-63
2023/06/08 01:22:02;;;;;;;16.15;7.75;;;;;;;;;;4989997;28;20093;-63
2023/06/08 01:24:30;;;;;;;18.95;6.20;;;;;;;;;;4989061;28;20342;-63
2023/06/08 01:26:57;;;;;;;17.02;7.32;;;;;;;;;;4990513;28;20779;-63
2023/06/08 01:29:27;;;;;;;15.13;7.00;;;;;;;;;;4990012;28;20042;-63
2023/06/08 01:31:54;;;;;;;14.18;6.40;;;;;;;;;;4990621;28;20061;-64
2023/06/08 01:34:21;;;;;;;14.85;6.18;;;;;;;;;;4990683;28;20034;-63
2023/06/08 01:36:47;;;;;;;14.40;5.45;;;;;;;;;;4990335;28;20038;-63
2023/06/08 01:39:31;;;;;;;12.38;4.90;;;;;;;;;;4990591;28;20039;-63
2023/06/08 01:42:01;;;;;;;12.52;5.57;;;;;;;;;;4990679;28;21873;-63
2023/06/08 01:44:29;;;;;;;14.63;6.38;;;;;;;;;;4990717;28;20424;-63
2023/06/08 01:46:56;;;;;;;12.80;5.30;;;;;;;;;;4990670;28;20136;-63
2023/06/08 01:49:25;;;;;;;15.32;6.32;;;;;;;;;;4990761;28;20030;-63
2023/06/08 01:51:52;;;;;;;13.40;5.53;;;;;;;;;;4989438;28;21760;-63
2023/06/08 01:54:18;;;;;;;16.73;5.38;;;;;;;;;;4990716;28;20040;-64
2023/06/08 01:56:44;;;;;;;12.23;5.57;;;;;;;;;;4989557;28;20029;-64
2023/06/08 01:59:10;;;;;;;18.92;6.68;;;;;;;;;;4990196;28;20061;-63
2023/06/08 02:01:36;;;;;;;18.48;6.18;;;;;;;;;;4989834;28;20037;-63
2023/06/08 02:04:02;;;;;;;17.95;8.60;;;;;;;;;;4988212;28;20733;-64
2023/06/08 02:06:28;;;;;;;14.77;7.75;;;;;;;;;;4988505;28;20033;-64
2023/06/08 02:08:54;;;;;;;16.63;8.60;;;;;;;;;;4988318;28;20056;-63
2023/06/08 02:11:22;;;;;;;15.57;8.43;;;;;;;;;;4987462;28;21170;-63
2023/06/08 02:13:48;;;;;;;14.82;7.78;;;;;;;;;;4987674;28;20037;-63
2023/06/08 02:16:18;;;;;;;13.32;7.38;;;;;;;;;;4986809;28;20686;-64
2023/06/08 02:18:45;;;;;;;15.90;7.72;;;;;;;;;;4987321;28;20033;-64
2023/06/08 02:21:11;;;;;;;14.23;8.02;;;;;;;;;;4987359;28;20026;-64
2023/06/08 02:23:38;;;;;;;16.27;8.50;;;;;;;;;;4987369;28;21954;-64
2023/06/08 02:26:05;;;;;;;23.67;8.50;;;;;;;;;;4989548;28;20034;-63
2023/06/08 02:28:31;;;;;;;18.85;7.68;;;;;;;;;;4986407;28;20034;-63
2023/06/08 02:30:57;;;;;;;13.80;7.20;;;;;;;;;;4985446;28;20041;-63
2023/06/08 02:33:23;;;;;;;18.10;7.18;;;;;;;;;;4986844;28;20769;-64
2023/06/08 02:35:49;;;;;;;19.50;6.80;;;;;;;;;;4985809;28;20030;-63
2023/06/08 02:38:16;;;;;;;13.73;6.88;;;;;;;;;;4986545;28;20080;-63
2023/06/08 02:40:42;;;;;;;16.33;5.47;;;;;;;;;;4987358;28;20026;-64
2023/06/08 02:43:08;;;;;;;14.82;5.75;;;;;;;;;;4987715;28;20036;-64
2023/06/08 02:45:34;;;;;;;17.95;6.40;;;;;;;;;;4986198;28;20033;-63
2023/06/08 02:48:01;;;;;;;14.27;5.47;;;;;;;;;;4988361;28;20034;-64
2023/06/08 02:50:27;;;;;;;15.00;5.72;;;;;;;;;;4988349;28;20103;-63
2023/06/08 02:52:53;;;;;;;15.30;5.50;;;;;;;;;;4988329;28;20145;-63
2023/06/08 02:55:19;;;;;;;14.20;5.30;;;;;;;;;;4988526;28;20030;-63
2023/06/08 02:57:49;;;;;;;12.38;6.15;;;;;;;;;;4988155;28;20056;-64
2023/06/08 03:00:15;;;;;;;18.50;7.68;;;;;;;;;;4987389;28;20156;-64
2023/06/08 03:02:41;;;;;;;12.20;5.78;;;;;;;;;;4988751;28;20043;-63
2023/06/08 03:05:08;;;;;;;14.60;6.57;;;;;;;;;;4988287;28;20034;-64
2023/06/08 03:07:36;;;;;;;15.05;5.78;;;;;;;;;;4984870;28;20061;-63
2023/06/08 03:10:02;;;;;;;15.90;7.05;;;;;;;;;;4988364;28;21733;-63
2023/06/08 03:12:29;;;;;;;14.98;6.93;;;;;;;;;;4988383;28;20030;-64
2023/06/08 03:14:55;;;;;;;16.00;6.40;;;;;;;;;;4989230;28;20029;-63
2023/06/08 03:17:24;;;;;;;14.93;6.63;;;;;;;;;;4988786;28;20743;-63
2023/06/08 03:19:50;;;;;;;12.15;6.28;;;;;;;;;;4988358;28;20052;-63
2023/06/08 03:22:16;;;;;;;15.75;6.38;;;;;;;;;;4988507;28;20034;-63
2023/06/08 03:24:42;;;;;;;18.98;6.18;;;;;;;;;;4987148;28;20445;-63
2023/06/08 03:27:08;;;;;;;20.48;6.50;;;;;;;;;;4988036;28;20040;-63
2023/06/08 03:29:34;;;;;;;15.52;6.05;;;;;;;;;;4987584;28;20035;-63
2023/06/08 03:32:01;;;;;;;12.38;5.72;;;;;;;;;;4988496;28;20089;-63
2023/06/08 03:34:27;;;;;;;10.02;5.38;;;;;;;;;;4988071;28;20045;-63
2023/06/08 03:36:53;;;;;;;12.55;5.18;;;;;;;;;;4988759;28;20083;-63
2023/06/08 03:39:20;;;;;;;14.23;5.00;;;;;;;;;;4987550;28;20118;-64
2023/06/08 03:41:46;;;;;;;15.02;5.32;;;;;;;;;;4987878;28;20030;-63
2023/06/08 03:44:12;;;;;;;12.68;4.93;;;;;;;;;;4989226;28;20026;-63
2023/06/08 03:46:38;;;;;;;15.27;5.00;;;;;;;;;;4988111;28;20025;-64
2023/06/08 03:49:04;;;;;;;12.20;4.72;;;;;;;;;;4991660;28;21422;-63
2023/06/08 03:51:30;;;;;;;18.52;6.38;;;;;;;;;;4991902;28;20037;-63
2023/06/08 03:53:57;;;;;;;10.73;4.93;;;;;;;;;;4991926;28;20053;-63
2023/06/08 03:56:23;;;;;;;11.75;4.97;;;;;;;;;;4991571;28;20045;-64
2023/06/08 03:58:51;;;;;;;15.70;5.25;;;;;;;;;;4991437;28;20129;-63
2023/06/08 04:01:18;;;;;;;10.85;4.57;;;;;;;;;;4991333;28;21317;-64
2023/06/08 04:03:44;;;;;;;9.70;4.65;;;;;;;;;;4992511;28;20033;-63
2023/06/08 04:06:10;;;;;;;14.15;5.55;;;;;;;;;;4991252;28;20029;-64
2023/06/08 04:08:40;;;;;;;13.50;4.97;;;;;;;;;;4990366;28;20504;-63
2023/06/08 04:11:09;;;;;;;12.10;5.05;;;;;;;;;;4992130;28;20123;-63
2023/06/08 04:13:36;;;;;;;17.20;4.93;;;;;;;;;;4990961;28;20042;-63
2023/06/08 04:16:09;;;;;;;14.88;5.70;;;;;;;;;;4988896;28;21454;-64
2023/06/08 04:18:36;;;;;;;15.70;4.93;;;;;;;;;;4988175;28;20116;-63
2023/06/08 04:21:04;;;;;;;14.07;4.63;;;;;;;;;;4990305;28;20068;-64
2023/06/08 04:23:31;;;;;;;12.60;4.72;;;;;;;;;;4989254;28;20030;-63
2023/06/08 04:25:58;;;;;;;15.90;5.55;;;;;;;;;;5003659;28;20044;-63
2023/06/08 04:28:24;;;;;;;17.15;5.38;;;;;;;;;;4990656;28;20497;-63
2023/06/08 04:30:50;;;;;;;14.02;4.65;;;;;;;;;;4991568;28;20116;-64
2023/06/08 04:33:16;;;;;;;11.77;4.60;;;;;;;;;;4991481;28;20752;-63
2023/06/08 04:35:43;;;;;;;12.68;4.43;;;;;;;;;;4989668;28;20041;-63
2023/06/08 04:38:15;;;;;;;10.98;4.32;;;;;;;;;;4988321;28;20104;-63
2023/06/08 04:40:53;;;;;;;16.95;4.45;;;;;;;;;;4990894;28;21236;-63
2023/06/08 04:43:31;;;;;;;11.90;4.43;;;;;;;;;;4991258;28;20038;-63
2023/06/08 04:45:59;;;;;;;13.98;4.57;;;;;;;;;;4996064;28;20030;-63
2023/06/08 04:48:28;;;;;;;12.52;4.60;;;;;;;;;;4990072;28;20156;-63
2023/06/08 04:50:55;;;;;;;14.98;4.47;;;;;;;;;;4988901;28;20044;-63
2023/06/08 04:53:21;;;;;;;11.90;4.20;;;;;;;;;;4990413;28;20071;-63
2023/06/08 04:55:49;;;;;;;16.77;4.43;;;;;;;;;;4987493;28;20065;-64
2023/06/08 04:58:15;;;;;;;18.65;5.97;;;;;;;;;;4986579;28;20066;-63
2023/06/08 05:00:42;;;;;;;17.13;5.03;;;;;;;;;;4987795;28;20037;-63
2023/06/08 05:03:08;;;;;;;16.17;5.15;;;;;;;;;;4988249;28;20064;-63
2023/06/08 05:05:34;;;;;;;12.80;4.75;;;;;;;;;;4989637;28;20105;-63
2023/06/08 05:08:00;;;;;;;17.42;5.90;;;;;;;;;;4989608;28;20072;-63
2023/06/08 05:10:26;;;;;;;12.93;4.70;;;;;;;;;;4990330;28;20161;-63
2023/06/08 05:12:55;;;;;;;13.70;5.55;;;;;;;;;;4989296;28;20037;-63
2023/06/08 05:15:21;;;;;;;15.85;5.00;;;;;;;;;;4990023;28;20026;-64
2023/06/08 05:17:47;;;;;;;18.13;5.03;;;;;;;;;;4990140;28;20026;-63
2023/06/08 05:20:14;;;;;;;13.68;4.50;;;;;;;;;;4990313;28;20025;-63
2023/06/08 05:22:40;;;;;;;17.88;6.07;;;;;;;;;;4994195;28;20037;-63
2023/06/08 05:25:06;;;;;;;16.92;5.85;;;;;;;;;;4990599;28;20068;-64
2023/06/08 05:27:32;;;;;;;11.63;4.05;;;;;;;;;;4990400;28;20022;-63
2023/06/08 05:29:58;;;;;;;14.98;4.95;;;;;;;;;;4990061;28;20045;-63
2023/06/08 05:32:24;;;;;;;12.80;4.55;;;;;;;;;;4989025;28;20030;-63
2023/06/08 05:34:50;;;;;;;9.95;4.30;;;;;;;;;;4988210;28;20064;-63
2023/06/08 05:37:16;;;;;;;10.77;4.40;;;;;;;;;;4989531;28;20145;-63
2023/06/08 05:39:42;;;;;;;11.88;4.90;;;;;;;;;;4990162;28;20038;-63
2023/06/08 05:42:10;;;;;;;14.75;4.90;;;;;;;;;;4990342;28;20113;-63
2023/06/08 05:44:36;;;;;;;14.05;4.68;;;;;;;;;;4990321;28;20034;-63
2023/06/08 05:47:02;;;;;;;11.45;4.47;;;;;;;;;;4989551;28;20188;-63
2023/06/08 05:49:28;;;;;;;14.85;5.53;;;;;;;;;;4989338;28;20057;-63
2023/06/08 05:51:55;;;;;;;16.42;5.47;;;;;;;;;;4987383;28;20037;-63
2023/06/08 05:54:21;;;;;;;15.95;5.05;;;;;;;;;;4990174;28;20037;-63
2023/06/08 05:56:47;;;;;;;14.93;4.70;;;;;;;;;;4989656;28;20073;-64
2023/06/08 05:59:13;;;;;;;12.00;4.53;;;;;;;;;;4989710;28;20041;-62
2023/06/08 06:01:39;;;;;;;12.07;5.05;;;;;;;;;;4989508;28;20025;-63
2023/06/08 06:04:06;;;;;;;14.48;5.00;;;;;;;;;;4990041;28;20042;-63
2023/06/08 06:06:32;;;;;;;13.68;4.50;;;;;;;;;;4989718;28;20068;-63
2023/06/08 06:08:58;;;;;;;12.45;4.40;;;;;;;;;;4989647;28;20057;-63
2023/06/08 06:11:25;;;;;;;16.23;4.85;;;;;;;;;;4987877;28;20057;-63
2023/06/08 06:13:51;;;;;;;15.10;4.45;;;;;;;;;;4989209;28;20033;-63
2023/06/08 06:16:18;;;;;;;17.70;4.43;;;;;;;;;;4988831;28;20532;-64
2023/06/08 06:18:46;;;;;;;12.63;4.15;;;;;;;;;;4988998;28;20038;-63
2023/06/08 06:21:12;;;;;;;15.98;4.25;;;;;;;;;;4986965;28;20022;-63
2023/06/08 06:23:38;;;;;;;15.32;5.00;;;;;;;;;;4986426;28;20030;-63
2023/06/08 06:26:05;;;;;;;15.10;4.40;;;;;;;;;;4986449;28;20489;-64
2023/06/08 06:28:31;;;;;;;14.32;4.53;;;;;;;;;;4988127;28;20036;-63
2023/06/08 06:30:57;;;;;;;9.88;3.88;;;;;;;;;;4987851;28;20417;-63
2023/06/08 06:33:23;;;;;;;11.40;4.10;;;;;;;;;;4988763;28;20045;-63
2023/06/08 06:35:49;;;;;;;15.85;5.80;;;;;;;;;;4987330;28;20049;-64
2023/06/08 06:38:15;;;;;;;13.50;4.38;;;;;;;;;;4989531;28;20037;-63
2023/06/08 06:40:41;;;;;;;13.40;4.13;;;;;;;;;;4988860;28;20030;-64
2023/06/08 06:43:07;;;;;;;10.85;3.97;;;;;;;;;;4989450;28;20037;-63
2023/06/08 06:45:33;;;;;;;13.38;4.30;;;;;;;;;;4990461;28;20051;-63
2023/06/08 06:48:00;;;;;;;13.82;5.15;;;;;;;;;;4990574;28;20037;-63
2023/06/08 06:50:26;;;;;;;10.27;4.55;;;;;;;;;;4990309;28;20653;-63
2023/06/08 06:52:52;;;;;;;13.45;4.03;;;;;;;;;;4990325;28;20046;-63
2023/06/08 06:55:18;;;;;;;14.40;4.25;;;;;;;;;;4990494;28;20427;-63
2023/06/08 06:57:45;;;;;;;16.48;4.80;;;;;;;;;;4990103;28;20034;-63
2023/06/08 07:00:11;;;;;;;11.60;5.10;;;;;;;;;;4990443;28;20505;-63
2023/06/08 07:02:38;;;;;;;12.80;3.90;;;;;;;;;;4990035;28;20030;-63
2023/06/08 07:05:08;;;;;;;12.90;4.18;;;;;;;;;;4990547;28;20044;-63
2023/06/08 07:07:35;;;;;;;8.93;3.50;;;;;;;;;;4989641;28;20521;-63
2023/06/08 07:10:01;;;;;;;14.20;4.70;;;;;;;;;;4987553;28;20073;-63
2023/06/08 07:12:29;;;;;;;14.45;4.07;;;;;;;;;;4988458;28;20520;-63
2023/06/08 07:14:55;;;;;;;9.38;3.50;;;;;;;;;;4988822;28;20034;-63
2023/06/08 07:17:21;;;;;;;11.43;4.20;;;;;;;;;;4989289;28;20030;-64
2023/06/08 07:19:47;;;;;;;12.52;4.70;;;;;;;;;;4988610;28;20531;-63
2023/06/08 07:22:13;;;;;;;12.18;3.75;;;;;;;;;;4988621;28;20432;-63
2023/06/08 07:24:39;;;;;;;12.63;4.25;;;;;;;;;;4986374;28;20119;-63
2023/06/08 07:27:06;;;;;;;12.68;4.25;;;;;;;;;;4988680;28;20042;-64
2023/06/08 07:29:32;;;;;;;17.20;4.43;;;;;;;;;;4989818;28;20042;-63
2023/06/08 07:31:58;;;;;;;15.13;5.15;;;;;;;;;;4988508;28;20038;-63
2023/06/08 07:34:26;;;;;;;9.82;4.47;;;;;;;;;;4987808;28;20044;-63
2023/06/08 07:36:52;;;;;;;13.65;4.10;;;;;;;;;;4990103;28;20085;-63
2023/06/08 07:39:18;;;;;;;16.85;4.70;;;;;;;;;;4988005;28;20037;-63
2023/06/08 07:41:44;;;;;;;14.13;3.83;;;;;;;;;;4986974;28;20710;-63
2023/06/08 07:44:10;;;;;;;12.55;4.22;;;;;;;;;;4989202;28;20049;-63
2023/06/08 07:46:36;;;;;;;16.92;4.60;;;;;;;;;;4989295;28;20080;-63
2023/06/08 07:49:02;;;;;;;12.25;3.95;;;;;;;;;;4989443;28;20034;-64
2023/06/08 07:51:28;;;;;;;19.02;4.45;;;;;;;;;;4988990;28;20034;-63
2023/06/08 07:53:55;;;;;;;13.32;5.75;;;;;;;;;;4989604;28;20061;-63
2023/06/08 07:56:21;;;;;;;13.85;4.88;;;;;;;;;;4988225;28;20041;-64
2023/06/08 07:58:48;;;;;;;14.93;4.78;;;;;;;;;;4989029;28;21845;-63
2023/06/08 08:01:16;;;;;;;17.65;4.75;;;;;;;;;;4989651;28;20033;-63
2023/06/08 08:03:42;;;;;;;15.73;4.63;;;;;;;;;;4988925;28;20065;-63
2023/06/08 08:06:08;;;;;;;13.85;4.43;;;;;;;;;;4990015;28;20034;-63
2023/06/08 08:08:34;;;;;;;13.65;4.75;;;;;;;;;;4987055;28;20046;-63
2023/06/08 08:11:00;;;;;;;10.00;3.90;;;;;;;;;;4988598;28;21771;-63
2023/06/08 08:13:28;;;;;;;17.40;5.15;;;;;;;;;;4988205;28;20078;-64
2023/06/08 08:15:54;;;;;;;9.25;4.25;;;;;;;;;;4989490;28;20045;-64
2023/06/08 08:18:20;;;;;;;13.82;5.18;;;;;;;;;;4989492;28;21767;-64
2023/06/08 08:20:46;;;;;;;13.82;4.40;;;;;;;;;;4989672;28;20034;-63
2023/06/08 08:23:12;;;;;;;11.77;3.70;;;;;;;;;;4989453;28;20429;-63
2023/06/08 08:25:40;;;;;;;11.25;3.58;;;;;;;;;;4989444;28;21288;-64
2023/06/08 08:28:06;;;;;;;12.27;3.97;;;;;;;;;;4985424;28;20026;-64
2023/06/08 08:30:32;;;;;;;13.55;4.18;;;;;;;;;;4986910;28;20381;-63
2023/06/08 08:32:59;;;;;;;11.77;4.10;;;;;;;;;;4987835;28;20038;-59
2023/06/08 08:35:28;;;;;;;11.30;4.38;;;;;;;;;;4989921;28;20041;-59
2023/06/08 08:37:55;;;;;;;15.88;4.28;;;;;;;;;;4991143;28;20503;-59
2023/06/08 08:40:22;;;;;;;12.32;4.38;;;;;;;;;;4991859;28;21641;-59
2023/06/08 08:42:52;;;;;;;12.35;3.78;;;;;;;;;;4990749;28;20033;-59
2023/06/08 08:45:21;;;;;;;11.60;4.07;;;;;;;;;;4991849;28;20065;-59
2023/06/08 08:47:48;;;;;;;9.30;3.65;;;;;;;;;;4992114;28;20041;-59
2023/06/08 08:50:16;;;;;;;11.43;3.88;;;;;;;;;;4991056;28;20030;-59
2023/06/08 08:52:45;;;;;;;10.52;3.78;;;;;;;;;;4993188;28;20029;-59
2023/06/08 08:55:11;;;;;;;14.32;4.10;;;;;;;;;;4992007;28;20040;-59
2023/06/08 08:57:37;;;;;;;13.85;3.85;;;;;;;;;;4988588;28;20021;-59
2023/06/08 09:00:06;;;;;;;11.13;4.30;;;;;;;;;;4989516;28;20116;-59
2023/06/08 09:02:36;;;;;;;19.27;4.15;;;;;;;;;;4990298;28;20803;-59
2023/06/08 09:05:06;;;;;;;16.38;4.10;;;;;;;;;;4986990;28;20065;-58
2023/06/08 09:07:32;;;;;;;19.35;4.70;;;;;;;;;;4984764;28;20045;-59
2023/06/08 09:10:21;;;;;;;13.05;3.92;;;;;;;;;;4981058;28;20285;-59
2023/06/08 09:12:48;;;;;;;10.38;3.90;;;;;;;;;;4985658;28;20088;-59
2023/06/08 09:15:37;;;;;;;12.75;4.13;;;;;;;;;;4984673;28;20021;-59
2023/06/08 09:18:19;;;;;;;8.85;3.80;;;;;;;;;;4984985;28;20025;-59
2023/06/08 09:20:45;;;;;;;11.43;4.07;;;;;;;;;;4984807;28;20057;-59
2023/06/08 09:23:15;;;;;;;9.00;3.78;;;;;;;;;;4985658;28;20634;-59
2023/06/08 09:25:41;;;;;;;15.75;4.10;;;;;;;;;;4984517;28;21695;-59
2023/06/08 09:28:17;;;;;;;12.98;4.05;;;;;;;;;;4985718;28;20042;-59
2023/06/08 09:30:44;;;;;;;12.27;3.85;;;;;;;;;;4985716;28;20126;-59
2023/06/08 09:33:24;;;;;;;10.38;3.47;;;;;;;;;;4984815;28;20053;-59
2023/06/08 09:36:15;;;;;;;10.23;3.20;;;;;;;;;;4985236;28;20030;-59
2023/06/08 09:38:43;;;;;;;11.15;3.53;;;;;;;;;;4984593;28;20033;-59
2023/06/08 09:41:16;;;;;;;11.85;4.22;;;;;;;;;;4983631;28;20983;-59
2023/06/08 09:43:46;;;;;;;10.80;3.22;;;;;;;;;;4984477;28;20049;-59
2023/06/08 09:46:16;;;;;;;11.25;3.70;;;;;;;;;;4984017;28;20705;-59
2023/06/08 09:48:52;;;;;;;11.38;3.63;;;;;;;;;;4984899;28;20042;-59
2023/06/08 09:51:19;;;;;;;8.25;3.40;;;;;;;;;;4985054;28;20045;-59
2023/06/08 09:53:45;;;;;;;10.63;3.53;;;;;;;;;;4984072;28;20199;-59
2023/06/08 09:56:12;;;;;;;13.65;3.92;;;;;;;;;;4984511;28;20085;-59
2023/06/08 09:58:39;;;;;;;12.52;3.75;;;;;;;;;;4984811;28;20053;-59
2023/06/08 10:01:09;;;;;;;9.00;3.22;;;;;;;;;;4983451;28;20046;-59
2023/06/08 10:03:40;;;;;;;8.18;3.38;;;;;;;;;;4984205;28;20041;-59
2023/06/08 10:06:07;;;;;;;10.18;3.88;;;;;;;;;;4981308;28;20026;-59
2023/06/08 10:08:34;;;;;;;11.23;3.35;;;;;;;;;;4982739;28;20037;-59
2023/06/08 10:11:01;;;;;;;9.45;3.08;;;;;;;;;;4984146;28;20535;-59
2023/06/08 10:13:28;;;;;;;9.95;3.13;;;;;;;;;;4984357;28;20026;-59
2023/06/08 10:15:54;;;;;;;10.75;3.63;;;;;;;;;;4983266;28;21476;-59
2023/06/08 10:18:21;;;;;;;8.25;3.15;;;;;;;;;;4984049;28;20026;-59
2023/06/08 10:20:48;;;;;;;10.10;3.17;;;;;;;;;;4984461;28;20040;-59
2023/06/08 10:23:14;;;;;;;8.88;2.97;;;;;;;;;;4982398;28;20543;-59
2023/06/08 10:25:41;;;;;;;9.18;3.25;;;;;;;;;;4983795;28;20140;-59
2023/06/08 10:28:08;;;;;;;11.73;3.92;;;;;;;;;;4982428;28;20026;-59
2023/06/08 10:30:40;;;;;;;9.70;3.90;;;;;;;;;;4984113;28;20068;-59
2023/06/08 10:33:09;;;;;;;9.98;3.92;;;;;;;;;;4983566;28;20038;-59
2023/06/08 10:35:36;;;;;;;12.60;4.25;;;;;;;;;;4979934;28;20018;-65
2023/06/08 10:38:29;;;;;;;8.50;3.80;;;;;;;;;;4979140;28;20646;-64
2023/06/08 10:40:55;;;;;;;13.00;4.32;;;;;;;;;;4979634;28;20042;-63
2023/06/08 10:43:28;;;;;;;10.20;3.67;;;;;;;;;;4982482;28;20045;-63
2023/06/08 10:45:55;;;;;;;18.73;4.77;;;;;;;;;;4981870;28;20017;-64
2023/06/08 10:48:22;;;;;;;14.35;4.35;;;;;;;;;;4983346;28;20106;-64
2023/06/08 10:50:51;;;;;;;10.80;4.13;;;;;;;;;;4983880;28;20634;-64
2023/06/08 10:53:18;;;;;;;10.50;3.95;;;;;;;;;;4983902;28;20030;-64
2023/06/08 10:55:48;;;;;;;10.38;3.45;;;;;;;;;;4984428;28;20022;-65
2023/06/08 10:58:19;;;;;;;10.57;3.22;;;;;;;;;;4983361;28;20041;-64
2023/06/08 11:00:46;;;;;;;10.18;3.75;;;;;;;;;;4984351;28;21455;-64
2023/06/08 11:03:16;;;;;;;10.75;3.75;;;;;;;;;;4982456;28;21093;-64
2023/06/08 11:05:44;;;;;;;15.38;4.90;;;;;;;;;;4983537;28;20034;-64
2023/06/08 11:08:11;;;;;;;10.45;4.07;;;;;;;;;;4982916;28;20021;-64
2023/06/08 11:10:39;;;;;;;9.93;3.75;;;;;;;;;;4987823;28;21881;-64
2023/06/08 11:13:13;;;;;;;11.98;4.00;;;;;;;;;;4982840;28;20042;-64
2023/06/08 11:15:40;;;;;;;10.35;3.45;;;;;;;;;;4983342;28;20489;-64
2023/06/08 11:18:08;;;;;;;10.00;3.67;;;;;;;;;;4982981;28;20176;-64
2023/06/08 11:20:35;;;;;;;12.50;3.67;;;;;;;;;;4983597;28;20094;-65
2023/06/08 11:23:02;;;;;;;10.05;3.63;;;;;;;;;;4983068;28;20068;-65
2023/06/08 11:25:29;;;;;;;11.27;3.97;;;;;;;;;;4983124;28;20041;-63
2023/06/08 11:27:57;;;;;;;7.90;3.63;;;;;;;;;;4982126;28;20030;-63
2023/06/08 11:30:26;;;;;;;12.18;4.03;;;;;;;;;;4982181;28;20094;-64
2023/06/08 11:32:52;;;;;;;10.98;3.33;;;;;;;;;;4983253;28;20754;-64
2023/06/08 11:35:19;;;;;;;10.43;3.38;;;;;;;;;;4981916;28;20041;-64
2023/06/08 11:37:45;;;;;;;12.65;3.40;;;;;;;;;;4982921;28;20104;-64
2023/06/08 11:40:12;;;;;;;9.10;3.35;;;;;;;;;;4982810;28;21567;-64
2023/06/08 11:42:39;;;;;;;7.43;2.70;;;;;;;;;;4982705;28;20025;-63
2023/06/08 11:45:06;;;;;;;12.40;3.22;;;;;;;;;;4983849;28;20515;-64
2023/06/08 11:47:32;;;;;;;9.32;2.80;;;;;;;;;;4982167;28;20037;-64
2023/06/08 11:50:01;;;;;;;12.70;3.47;;;;;;;;;;4984909;28;20045;-63
2023/06/08 11:52:27;;;;;;;8.02;2.88;;;;;;;;;;4988931;28;20107;-64
2023/06/08 11:55:01;;;;;;;8.75;2.97;;;;;;;;;;4988928;28;20044;-64
2023/06/08 11:57:37;;;;;;;7.75;2.95;;;;;;;;;;4989826;28;20104;-63
2023/06/08 12:00:06;;;;;;;11.40;2.65;;;;;;;;;;4988453;28;20030;-63
2023/06/08 12:02:35;;;;;;;8.27;2.72;;;;;;;;;;4988595;28;20038;-64
2023/06/08 12:05:01;;;;;;;8.05;2.88;;;;;;;;;;4990361;28;20140;-64
2023/06/08 12:07:27;;;;;;;10.25;3.20;;;;;;;;;;4988326;28;20030;-63
2023/06/08 12:09:53;;;;;;;10.30;3.30;;;;;;;;;;4991950;28;20141;-63
2023/06/08 12:12:20;;;;;;;11.32;3.50;;;;;;;;;;4992892;28;20033;-64
2023/06/08 12:14:47;;;;;;;10.10;3.20;;;;;;;;;;4993704;28;20045;-64
2023/06/08 12:17:16;;;;;;;7.10;2.70;;;;;;;;;;4992363;28;20041;-64
2023/06/08 12:19:43;;;;;;;9.45;3.40;;;;;;;;;;4992421;28;20037;-64
2023/06/08 12:22:09;;;;;;;9.05;2.88;;;;;;;;;;4992216;28;20034;-64
2023/06/08 12:24:36;;;;;;;9.30;3.28;;;;;;;;;;4993577;28;20117;-64
2023/06/08 12:27:03;;;;;;;9.75;3.15;;;;;;;;;;4993413;28;20089;-64
2023/06/08 12:29:29;;;;;;;8.35;2.80;;;;;;;;;;4993597;28;20049;-63
2023/06/08 12:31:55;;;;;;;13.68;3.47;;;;;;;;;;4993664;28;20025;-64
2023/06/08 12:34:21;;;;;;;7.38;2.30;;;;;;;;;;4991955;28;20056;-63
2023/06/08 12:36:48;;;;;;;9.80;3.30;;;;;;;;;;4993882;28;20037;-63
2023/06/08 12:39:15;;;;;;;9.77;2.72;;;;;;;;;;4993522;28;20034;-64
2023/06/08 12:41:41;;;;;;;8.15;2.83;;;;;;;;;;4994394;28;20037;-63
2023/06/08 12:44:08;;;;;;;8.73;2.58;;;;;;;;;;4993893;28;20497;-64
2023/06/08 12:46:34;;;;;;;13.27;3.25;;;;;;;;;;4991627;28;20041;-64
2023/06/08 12:49:00;;;;;;;7.25;2.47;;;;;;;;;;4990093;28;20034;-64
2023/06/08 12:51:26;;;;;;;7.43;2.28;;;;;;;;;;4990958;28;20034;-63
2023/06/08 12:53:52;;;;;;;5.88;2.63;;;;;;;;;;4991919;28;20098;-64
2023/06/08 12:56:18;;;;;;;9.75;2.90;;;;;;;;;;4992282;28;20037;-64
2023/06/08 12:58:44;;;;;;;10.05;3.13;;;;;;;;;;4989055;28;20622;-63
2023/06/08 13:01:10;;;;;;;9.65;3.03;;;;;;;;;;4993185;28;20022;-64
2023/06/08 13:03:36;;;;;;;9.02;3.00;;;;;;;;;;4993134;28;20956;-64
2023/06/08 13:06:03;;;;;;;8.52;3.20;;;;;;;;;;4992523;28;20497;-63
2023/06/08 13:08:29;;;;;;;10.23;3.30;;;;;;;;;;4993089;28;20038;-64
2023/06/08 13:10:55;;;;;;;12.70;2.95;;;;;;;;;;4994041;28;20057;-63
2023/06/08 13:13:21;;;;;;;7.28;2.78;;;;;;;;;;4993445;28;20045;-64
2023/06/08 13:15:48;;;;;;;7.05;2.55;;;;;;;;;;4992036;28;20037;-64
2023/06/08 13:18:15;;;;;;;8.10;2.88;;;;;;;;;;4993310;28;20045;-63
2023/06/08 13:20:41;;;;;;;9.73;3.10;;;;;;;;;;4992926;28;20143;-63
2023/06/08 13:23:07;;;;;;;7.93;3.22;;;;;;;;;;4992497;28;20025;-63
2023/06/08 13:25:33;;;;;;;11.05;3.05;;;;;;;;;;4992893;28;20030;-64
2023/06/08 13:28:00;;;;;;;8.85;2.55;;;;;;;;;;4993300;28;20034;-63
2023/06/08 13:30:26;;;;;;;8.98;3.25;;;;;;;;;;4993170;28;20038;-63
2023/06/08 13:32:53;;;;;;;7.82;2.60;;;;;;;;;;4992514;28;20120;-63
2023/06/08 13:35:19;;;;;;;9.07;3.15;;;;;;;;;;4992801;28;20030;-63
2023/06/08 13:37:45;;;;;;;9.57;2.80;;;;;;;;;;4992153;28;20990;-63
2023/06/08 13:40:11;;;;;;;9.18;2.85;;;;;;;;;;4992940;28;20026;-64
2023/06/08 13:42:39;;;;;;;7.88;2.70;;;;;;;;;;4992395;28;20126;-63
2023/06/08 13:45:10;;;;;;;10.95;3.17;;;;;;;;;;4992784;28;20044;-63
2023/06/08 13:47:36;;;;;;;8.00;3.33;;;;;;;;;;4992361;28;21834;-64
2023/06/08 13:50:03;;;;;;;10.02;2.78;;;;;;;;;;4991341;28;20046;-63
2023/06/08 13:52:29;;;;;;;7.78;2.28;;;;;;;;;;4992249;28;20042;-64
2023/06/08 13:54:55;;;;;;;10.52;2.80;;;;;;;;;;4991817;28;20037;-64
2023/06/08 13:57:22;;;;;;;9.30;2.40;;;;;;;;;;4991305;28;20042;-64
2023/06/08 13:59:48;;;;;;;9.40;3.20;;;;;;;;;;4992176;28;20040;-63
2023/06/08 14:02:14;;;;;;;15.13;3.63;;;;;;;;;;4992107;28;21811;-64
2023/06/08 14:04:41;;;;;;;9.18;2.72;;;;;;;;;;4990753;28;20041;-64
2023/06/08 14:07:07;;;;;;;9.40;3.47;;;;;;;;;;4991313;28;20084;-64
2023/06/08 14:09:33;;;;;;;9.85;3.00;;;;;;;;;;4991731;28;20057;-64
2023/06/08 14:11:59;;;;;;;7.97;2.80;;;;;;;;;;4991421;28;20046;-63
2023/06/08 14:14:25;;;;;;;11.15;4.28;;;;;;;;;;4991876;28;20037;-64
2023/06/08 14:16:52;;;;;;;10.65;3.70;;;;;;;;;;4990961;28;20492;-63
2023/06/08 14:19:18;;;;;;;8.25;2.63;;;;;;;;;;4991338;28;20105;-64
2023/06/08 14:21:45;;;;;;;9.15;3.00;;;;;;;;;;4991689;28;20595;-64
2023/06/08 14:24:11;;;;;;;7.70;2.97;;;;;;;;;;4991113;28;20033;-64
2023/06/08 14:26:37;;;;;;;10.40;3.80;;;;;;;;;;4990510;28;20037;-63
2023/06/08 14:29:04;;;;;;;8.95;3.40;;;;;;;;;;4992822;28;20033;-64
2023/06/08 14:31:30;;;;;;;8.50;3.00;;;;;;;;;;4991590;28;20041;-64
2023/06/08 14:33:56;;;;;;;9.73;2.70;;;;;;;;;;4991107;28;20156;-64
2023/06/08 14:36:23;;;;;;;6.72;2.63;;;;;;;;;;4991381;28;20091;-64